sensor_id;sensor_type;location;lat;lon;timestamp;pressure;altitude;pressure_sealevel;temperature;humidity
8894;BME280;4483;48.622;9.230;2023-07-30T00:01:30;97458.38;;;19.03;100.00
8894;BME280;4483;48.622;9.230;2023-07-30T00:03:56;97457.66;;;19.01;100.00
8894;BME280;4483;48.622;9.230;2023-07-30T00:06:23;97476.06;;;19.00;100.00
8894;BME280;4483;48.622;9.230;2023-07-30T00:08:50;97464.09;;;18.97;100.00
8894;BME280;4483;48.622;9.230;2023-07-30T00:11:16;97462.56;;;18.95;100.00
8894;BME280;4483;48.622;9.230;2023-07-30T00:13:43;97477.41;;;18.94;100.00
8894;BME280;4483;48.622;9.230;2023-07-30T00:16:11;97473.00;;;18.95;100.00
8894;BME280;4483;48.622;9.230;2023-07-30T00:18:38;97473.13;;;18.93;100.00
8894;BME280;4483;48.622;9.230;2023-07-30T00:21:04;97464.47;;;18.93;100.00
8894;BME280;4483;48.622;9.230;2023-07-30T00:23:31;97465.78;;;18.87;100.00
8894;BME280;4483;48.622;9.230;2023-07-30T00:25:57;97463.53;;;18.83;100.00
8894;BME280;4483;48.622;9.230;2023-07-30T00:28:24;97470.66;;;18.81;100.00
8894;BME280;4483;48.622;9.230;2023-07-30T00:30:51;97461.03;;;18.81;100.00
8894;BME280;4483;48.622;9.230;2023-07-30T00:33:19;97460.47;;;18.78;100.00
8894;BME280;4483;48.622;9.230;2023-07-30T00:35:45;97467.31;;;18.79;100.00
8894;BME280;4483;48.622;9.230;2023-07-30T00:38:12;97466.41;;;18.80;100.00
8894;BME280;4483;48.622;9.230;2023-07-30T00:40:40;97475.88;;;18.81;100.00
8894;BME280;4483;48.622;9.230;2023-07-30T00:43:07;97473.38;;;18.79;100.00
8894;BME280;4483;48.622;9.230;2023-07-30T00:45:34;97470.66;;;18.81;100.00
8894;BME280;4483;48.622;9.230;2023-07-30T00:48:01;97474.09;;;18.81;100.00
8894;BME280;4483;48.622;9.230;2023-07-30T00:50:29;97469.84;;;18.80;100.00
8894;BME280;4483;48.622;9.230;2023-07-30T00:52:57;97467.44;;;18.77;100.00
8894;BME280;4483;48.622;9.230;2023-07-30T00:55:23;97467.56;;;18.76;100.00
8894;BME280;4483;48.622;9.230;2023-07-30T00:57:51;97471.97;;;18.75;100.00
8894;BME280;4483;48.622;9.230;2023-07-30T01:00:18;97477.56;;;18.71;100.00
8894;BME280;4483;48.622;9.230;2023-07-30T01:02:44;97475.88;;;18.70;100.00
8894;BME280;4483;48.622;9.230;2023-07-30T01:05:11;97477.81;;;18.68;100.00
8894;BME280;4483;48.622;9.230;2023-07-30T01:07:39;97482.91;;;18.69;100.00
8894;BME280;4483;48.622;9.230;2023-07-30T01:10:07;97480.41;;;18.68;100.00
8894;BME280;4483;48.622;9.230;2023-07-30T01:12:34;97476.38;;;18.64;100.00
8894;BME280;4483;48.622;9.230;2023-07-30T01:15:03;97478.28;;;18.62;100.00
8894;BME280;4483;48.622;9.230;2023-07-30T01:17:30;97486.56;;;18.67;100.00
8894;BME280;4483;48.622;9.230;2023-07-30T01:19:57;97485.63;;;18.68;100.00
8894;BME280;4483;48.622;9.230;2023-07-30T01:22:25;97490.59;;;18.71;100.00
8894;BME280;4483;48.622;9.230;2023-07-30T01:24:52;97492.16;;;18.62;100.00
8894;BME280;4483;48.622;9.230;2023-07-30T01:27:23;97492.16;;;18.62;100.00
8894;BME280;4483;48.622;9.230;2023-07-30T01:29:52;97489.78;;;18.59;100.00
8894;BME280;4483;48.622;9.230;2023-07-30T01:32:25;97489.78;;;18.59;100.00
8894;BME280;4483;48.622;9.230;2023-07-30T01:34:53;97505.31;;;18.61;100.00
8894;BME280;4483;48.622;9.230;2023-07-30T01:37:20;97498.56;;;18.58;100.00
8894;BME280;4483;48.622;9.230;2023-07-30T01:39:49;97497.25;;;18.53;100.00
8894;BME280;4483;48.622;9.230;2023-07-30T01:42:16;97497.38;;;18.51;100.00
8894;BME280;4483;48.622;9.230;2023-07-30T01:44:43;97494.06;;;18.49;100.00
8894;BME280;4483;48.622;9.230;2023-07-30T01:47:09;97494.41;;;18.45;100.00
8894;BME280;4483;48.622;9.230;2023-07-30T01:49:36;97502.34;;;18.43;100.00
8894;BME280;4483;48.622;9.230;2023-07-30T01:52:03;97500.69;;;18.42;100.00
8894;BME280;4483;48.622;9.230;2023-07-30T01:54:30;97501.88;;;18.38;100.00
8894;BME280;4483;48.622;9.230;2023-07-30T01:56:59;97506.13;;;18.39;100.00
8894;BME280;4483;48.622;9.230;2023-07-30T01:59:26;97503.50;;;18.39;100.00
8894;BME280;4483;48.622;9.230;2023-07-30T02:01:53;97509.69;;;18.38;100.00
8894;BME280;4483;48.622;9.230;2023-07-30T02:04:19;97504.59;;;18.37;100.00
8894;BME280;4483;48.622;9.230;2023-07-30T02:06:46;97497.81;;;18.34;100.00
8894;BME280;4483;48.622;9.230;2023-07-30T02:09:13;97497.34;;;18.29;100.00
8894;BME280;4483;48.622;9.230;2023-07-30T02:11:39;97496.63;;;18.27;100.00
8894;BME280;4483;48.622;9.230;2023-07-30T02:14:08;97491.53;;;18.26;100.00
8894;BME280;4483;48.622;9.230;2023-07-30T02:16:35;97491.03;;;18.21;100.00
8894;BME280;4483;48.622;9.230;2023-07-30T02:19:02;97492.13;;;18.18;100.00
8894;BME280;4483;48.622;9.230;2023-07-30T02:21:28;97485.94;;;18.19;100.00
8894;BME280;4483;48.622;9.230;2023-07-30T02:23:58;97487.00;;;18.17;100.00
8894;BME280;4483;48.622;9.230;2023-07-30T02:26:25;97487.13;;;18.15;100.00
8894;BME280;4483;48.622;9.230;2023-07-30T02:28:51;97489.97;;;18.12;100.00
8894;BME280;4483;48.622;9.230;2023-07-30T02:31:19;97480.13;;;18.04;100.00
8894;BME280;4483;48.622;9.230;2023-07-30T02:33:46;97500.88;;;18.06;100.00
8894;BME280;4483;48.622;9.230;2023-07-30T02:36:12;97498.50;;;18.03;100.00
8894;BME280;4483;48.622;9.230;2023-07-30T02:38:39;97513.31;;;18.02;100.00
8894;BME280;4483;48.622;9.230;2023-07-30T02:41:06;97501.44;;;17.98;100.00
8894;BME280;4483;48.622;9.230;2023-07-30T02:43:32;97512.00;;;17.97;100.00
8894;BME280;4483;48.622;9.230;2023-07-30T02:45:59;97508.91;;;17.92;100.00
8894;BME280;4483;48.622;9.230;2023-07-30T02:48:27;97502.97;;;17.90;100.00
8894;BME280;4483;48.622;9.230;2023-07-30T02:50:53;97505.47;;;17.91;100.00
8894;BME280;4483;48.622;9.230;2023-07-30T02:53:20;97499.41;;;17.91;100.00
8894;BME280;4483;48.622;9.230;2023-07-30T02:55:47;97494.09;;;17.92;100.00
8894;BME280;4483;48.622;9.230;2023-07-30T02:58:14;97500.84;;;17.95;100.00
8894;BME280;4483;48.622;9.230;2023-07-30T03:00:40;97496.47;;;17.95;100.00
8894;BME280;4483;48.622;9.230;2023-07-30T03:03:07;97500.63;;;17.98;100.00
8894;BME280;4483;48.622;9.230;2023-07-30T03:05:35;97504.16;;;17.97;100.00
8894;BME280;4483;48.622;9.230;2023-07-30T03:08:02;97502.13;;;17.89;100.00
8894;BME280;4483;48.622;9.230;2023-07-30T03:10:28;97503.41;;;17.84;100.00
8894;BME280;4483;48.622;9.230;2023-07-30T03:12:55;97510.66;;;17.80;100.00
8894;BME280;4483;48.622;9.230;2023-07-30T03:15:22;97511.59;;;17.79;100.00
8894;BME280;4483;48.622;9.230;2023-07-30T03:17:48;97510.16;;;17.75;100.00
8894;BME280;4483;48.622;9.230;2023-07-30T03:20:15;97509.19;;;17.76;100.00
8894;BME280;4483;48.622;9.230;2023-07-30T03:22:43;97500.69;;;17.74;100.00
8894;BME280;4483;48.622;9.230;2023-07-30T03:25:09;97504.34;;;17.72;100.00
8894;BME280;4483;48.622;9.230;2023-07-30T03:27:36;97505.41;;;17.69;100.00
8894;BME280;4483;48.622;9.230;2023-07-30T03:30:03;97507.06;;;17.70;100.00
8894;BME280;4483;48.622;9.230;2023-07-30T03:32:31;97501.88;;;17.70;100.00
8894;BME280;4483;48.622;9.230;2023-07-30T03:34:57;97501.16;;;17.68;100.00
8894;BME280;4483;48.622;9.230;2023-07-30T03:37:24;97506.47;;;17.67;100.00
8894;BME280;4483;48.622;9.230;2023-07-30T03:39:52;97504.78;;;17.66;100.00
8894;BME280;4483;48.622;9.230;2023-07-30T03:42:19;97505.63;;;17.66;100.00
8894;BME280;4483;48.622;9.230;2023-07-30T03:44:45;97519.50;;;17.67;100.00
8894;BME280;4483;48.622;9.230;2023-07-30T03:47:12;97516.91;;;17.67;100.00
8894;BME280;4483;48.622;9.230;2023-07-30T03:49:39;97516.91;;;17.67;100.00
8894;BME280;4483;48.622;9.230;2023-07-30T03:52:06;97528.25;;;17.66;100.00
8894;BME280;4483;48.622;9.230;2023-07-30T03:54:32;97537.75;;;17.67;100.00
8894;BME280;4483;48.622;9.230;2023-07-30T03:57:00;97531.69;;;17.66;100.00
8894;BME280;4483;48.622;9.230;2023-07-30T03:59:27;97547.91;;;17.70;100.00
8894;BME280;4483;48.622;9.230;2023-07-30T04:01:54;97542.59;;;17.71;100.00
8894;BME280;4483;48.622;9.230;2023-07-30T04:04:21;97540.94;;;17.70;100.00
8894;BME280;4483;48.622;9.230;2023-07-30T04:06:47;97548.41;;;17.75;100.00
8894;BME280;4483;48.622;9.230;2023-07-30T04:09:14;97546.75;;;17.74;100.00
8894;BME280;4483;48.622;9.230;2023-07-30T04:11:40;97551.25;;;17.72;100.00
8894;BME280;4483;48.622;9.230;2023-07-30T04:14:08;97550.28;;;17.73;100.00
8894;BME280;4483;48.622;9.230;2023-07-30T04:16:35;97539.16;;;17.71;100.00
8894;BME280;4483;48.622;9.230;2023-07-30T04:19:02;97548.53;;;17.73;100.00
8894;BME280;4483;48.622;9.230;2023-07-30T04:21:28;97550.91;;;17.76;100.00
8894;BME280;4483;48.622;9.230;2023-07-30T04:23:55;97549.97;;;17.77;100.00
8894;BME280;4483;48.622;9.230;2023-07-30T04:26:22;97563.00;;;17.77;100.00
8894;BME280;4483;48.622;9.230;2023-07-30T04:28:48;97566.44;;;17.78;100.00
8894;BME280;4483;48.622;9.230;2023-07-30T04:31:16;97571.75;;;17.76;100.00
8894;BME280;4483;48.622;9.230;2023-07-30T04:33:43;97575.91;;;17.79;100.00
8894;BME280;4483;48.622;9.230;2023-07-30T04:36:09;97569.84;;;17.78;100.00
8894;BME280;4483;48.622;9.230;2023-07-30T04:38:36;97576.03;;;17.77;100.00
8894;BME280;4483;48.622;9.230;2023-07-30T04:41:03;97583.00;;;17.77;100.00
8894;BME280;4483;48.622;9.230;2023-07-30T04:43:29;97586.44;;;17.77;100.00
8894;BME280;4483;48.622;9.230;2023-07-30T04:45:56;97578.50;;;17.79;100.00
8894;BME280;4483;48.622;9.230;2023-07-30T04:48:24;97577.78;;;17.77;100.00
8894;BME280;4483;48.622;9.230;2023-07-30T04:50:51;97581.25;;;17.77;100.00
8894;BME280;4483;48.622;9.230;2023-07-30T04:53:17;97578.63;;;17.77;100.00
8894;BME280;4483;48.622;9.230;2023-07-30T04:55:45;97571.66;;;17.78;100.00
8894;BME280;4483;48.622;9.230;2023-07-30T04:58:12;97574.03;;;17.81;100.00
8894;BME280;4483;48.622;9.230;2023-07-30T05:00:39;97578.91;;;17.85;100.00
8894;BME280;4483;48.622;9.230;2023-07-30T05:03:05;97576.06;;;17.88;100.00
8894;BME280;4483;48.622;9.230;2023-07-30T05:05:33;97573.94;;;17.93;100.00
8894;BME280;4483;48.622;9.230;2023-07-30T05:08:00;97575.25;;;17.99;100.00
8894;BME280;4483;48.622;9.230;2023-07-30T05:10:26;97579.31;;;18.03;100.00
8894;BME280;4483;48.622;9.230;2023-07-30T05:12:53;97579.78;;;18.08;100.00
8894;BME280;4483;48.622;9.230;2023-07-30T05:15:20;97581.00;;;18.15;100.00
8894;BME280;4483;48.622;9.230;2023-07-30T05:17:46;97573.69;;;18.20;100.00
8894;BME280;4483;48.622;9.230;2023-07-30T05:20:13;97588.13;;;18.24;100.00
8894;BME280;4483;48.622;9.230;2023-07-30T05:22:41;97584.47;;;18.27;100.00
8894;BME280;4483;48.622;9.230;2023-07-30T05:25:08;97591.13;;;18.31;100.00
8894;BME280;4483;48.622;9.230;2023-07-30T05:27:35;97584.94;;;18.32;100.00
8894;BME280;4483;48.622;9.230;2023-07-30T05:30:02;97589.59;;;18.39;100.00
8894;BME280;4483;48.622;9.230;2023-07-30T05:32:29;97595.44;;;18.43;100.00
8894;BME280;4483;48.622;9.230;2023-07-30T05:34:55;97584.66;;;18.47;100.00
8894;BME280;4483;48.622;9.230;2023-07-30T05:37:22;97595.09;;;18.58;100.00
8894;BME280;4483;48.622;9.230;2023-07-30T05:39:50;97580.88;;;18.62;100.00
8894;BME280;4483;48.622;9.230;2023-07-30T05:42:17;97588.72;;;18.62;100.00
8894;BME280;4483;48.622;9.230;2023-07-30T05:44:43;97587.63;;;18.65;100.00
8894;BME280;4483;48.622;9.230;2023-07-30T05:47:10;97586.56;;;18.67;100.00
8894;BME280;4483;48.622;9.230;2023-07-30T05:49:37;97592.72;;;18.66;100.00
8894;BME280;4483;48.622;9.230;2023-07-30T05:52:04;97589.19;;;18.67;100.00
8894;BME280;4483;48.622;9.230;2023-07-30T05:54:31;97594.16;;;18.70;100.00
8894;BME280;4483;48.622;9.230;2023-07-30T05:56:59;97587.75;;;18.74;100.00
8894;BME280;4483;48.622;9.230;2023-07-30T05:59:26;97597.59;;;18.82;100.00
8894;BME280;4483;48.622;9.230;2023-07-30T06:01:52;97606.75;;;18.87;100.00
8894;BME280;4483;48.622;9.230;2023-07-30T06:04:19;97597.47;;;18.94;100.00
8894;BME280;4483;48.622;9.230;2023-07-30T06:06:46;97600.34;;;19.02;100.00
8894;BME280;4483;48.622;9.230;2023-07-30T06:09:12;97606.47;;;19.13;100.00
8894;BME280;4483;48.622;9.230;2023-07-30T06:11:39;97594.25;;;19.24;100.00
8894;BME280;4483;48.622;9.230;2023-07-30T06:14:07;97593.28;;;19.36;100.00
8894;BME280;4483;48.622;9.230;2023-07-30T06:16:34;97588.19;;;19.46;100.00
8894;BME280;4483;48.622;9.230;2023-07-30T06:19:00;97594.31;;;19.56;100.00
8894;BME280;4483;48.622;9.230;2023-07-30T06:21:27;97588.47;;;19.63;100.00
8894;BME280;4483;48.622;9.230;2023-07-30T06:23:53;97589.53;;;19.72;100.00
8894;BME280;4483;48.622;9.230;2023-07-30T06:26:20;97595.69;;;19.71;100.00
8894;BME280;4483;48.622;9.230;2023-07-30T06:28:47;97598.09;;;19.74;100.00
8894;BME280;4483;48.622;9.230;2023-07-30T06:31:15;97596.41;;;19.73;100.00
8894;BME280;4483;48.622;9.230;2023-07-30T06:33:41;97594.50;;;19.75;100.00
8894;BME280;4483;48.622;9.230;2023-07-30T06:36:08;97599.25;;;19.81;100.00
8894;BME280;4483;48.622;9.230;2023-07-30T06:38:34;97596.56;;;19.92;100.00
8894;BME280;4483;48.622;9.230;2023-07-30T06:41:01;97592.06;;;19.94;100.00
8894;BME280;4483;48.622;9.230;2023-07-30T06:43:28;97599.38;;;20.00;100.00
8894;BME280;4483;48.622;9.230;2023-07-30T06:45:55;97597.03;;;19.97;100.00
8894;BME280;4483;48.622;9.230;2023-07-30T06:48:23;97614.69;;;20.04;100.00
8894;BME280;4483;48.622;9.230;2023-07-30T06:50:50;97622.63;;;20.14;100.00
8894;BME280;4483;48.622;9.230;2023-07-30T06:53:16;97623.81;;;20.21;100.00
8894;BME280;4483;48.622;9.230;2023-07-30T06:55:44;97624.69;;;20.31;100.00
8894;BME280;4483;48.622;9.230;2023-07-30T06:58:12;97618.69;;;20.40;100.00
8894;BME280;4483;48.622;9.230;2023-07-30T07:00:39;97625.28;;;20.55;100.00
8894;BME280;4483;48.622;9.230;2023-07-30T07:03:06;97620.03;;;20.76;100.00
8894;BME280;4483;48.622;9.230;2023-07-30T07:05:35;97622.66;;;21.06;100.00
8894;BME280;4483;48.622;9.230;2023-07-30T07:08:01;97627.00;;;21.26;100.00
8894;BME280;4483;48.622;9.230;2023-07-30T07:10:28;97622.97;;;21.62;100.00
8894;BME280;4483;48.622;9.230;2023-07-30T07:12:55;97632.16;;;21.86;100.00
8894;BME280;4483;48.622;9.230;2023-07-30T07:15:22;97636.44;;;22.07;100.00
8894;BME280;4483;48.622;9.230;2023-07-30T07:17:49;97637.09;;;22.28;100.00
8894;BME280;4483;48.622;9.230;2023-07-30T07:20:15;97638.59;;;22.49;100.00
8894;BME280;4483;48.622;9.230;2023-07-30T07:22:45;97645.63;;;22.49;100.00
8894;BME280;4483;48.622;9.230;2023-07-30T07:25:12;97646.22;;;22.33;100.00
8894;BME280;4483;48.622;9.230;2023-07-30T07:27:39;97664.31;;;21.98;100.00
8894;BME280;4483;48.622;9.230;2023-07-30T07:30:07;97685.78;;;21.73;100.00
8894;BME280;4483;48.622;9.230;2023-07-30T07:32:39;97687.91;;;21.49;100.00
8894;BME280;4483;48.622;9.230;2023-07-30T07:35:08;97701.63;;;21.22;100.00
8894;BME280;4483;48.622;9.230;2023-07-30T07:37:35;97693.09;;;20.99;100.00
8894;BME280;4483;48.622;9.230;2023-07-30T07:40:04;97686.25;;;20.67;100.00
8894;BME280;4483;48.622;9.230;2023-07-30T07:42:31;97679.22;;;20.47;100.00
8894;BME280;4483;48.622;9.230;2023-07-30T07:44:58;97681.44;;;20.31;100.00
8894;BME280;4483;48.622;9.230;2023-07-30T07:47:24;97689.09;;;20.12;100.00
8894;BME280;4483;48.622;9.230;2023-07-30T07:49:51;97677.03;;;19.99;100.00
8894;BME280;4483;48.622;9.230;2023-07-30T07:52:17;97675.91;;;20.02;100.00
8894;BME280;4483;48.622;9.230;2023-07-30T07:54:44;97672.28;;;19.93;100.00
8894;BME280;4483;48.622;9.230;2023-07-30T07:57:12;97677.50;;;19.93;100.00
8894;BME280;4483;48.622;9.230;2023-07-30T07:59:39;97662.41;;;19.97;100.00
8894;BME280;4483;48.622;9.230;2023-07-30T08:02:06;97668.53;;;20.07;100.00
8894;BME280;4483;48.622;9.230;2023-07-30T08:04:33;97669.59;;;20.16;100.00
8894;BME280;4483;48.622;9.230;2023-07-30T08:07:00;97667.09;;;20.25;100.00
8894;BME280;4483;48.622;9.230;2023-07-30T08:09:28;97672.44;;;20.44;100.00
8894;BME280;4483;48.622;9.230;2023-07-30T08:11:55;97668.13;;;20.54;100.00
8894;BME280;4483;48.622;9.230;2023-07-30T08:14:23;97680.56;;;20.62;100.00
8894;BME280;4483;48.622;9.230;2023-07-30T08:16:50;97673.84;;;20.69;100.00
8894;BME280;4483;48.622;9.230;2023-07-30T08:19:16;97679.03;;;20.80;100.00
8894;BME280;4483;48.622;9.230;2023-07-30T08:21:43;97674.41;;;20.93;100.00
8894;BME280;4483;48.622;9.230;2023-07-30T08:24:10;97678.13;;;21.11;100.00
8894;BME280;4483;48.622;9.230;2023-07-30T08:26:36;97684.53;;;21.37;100.00
8894;BME280;4483;48.622;9.230;2023-07-30T08:29:03;97672.50;;;21.65;100.00
8894;BME280;4483;48.622;9.230;2023-07-30T08:31:32;97679.91;;;21.99;100.00
8894;BME280;4483;48.622;9.230;2023-07-30T08:33:59;97670.69;;;22.34;100.00
8894;BME280;4483;48.622;9.230;2023-07-30T08:36:26;97667.88;;;22.54;100.00
8894;BME280;4483;48.622;9.230;2023-07-30T08:38:52;97667.63;;;22.67;100.00
8894;BME280;4483;48.622;9.230;2023-07-30T08:41:19;97661.50;;;22.85;100.00
8894;BME280;4483;48.622;9.230;2023-07-30T08:43:46;97662.25;;;23.15;100.00
8894;BME280;4483;48.622;9.230;2023-07-30T08:46:14;97653.47;;;23.60;100.00
8894;BME280;4483;48.622;9.230;2023-07-30T08:48:42;97664.72;;;23.98;99.70
8894;BME280;4483;48.622;9.230;2023-07-30T08:51:10;97655.03;;;24.51;95.16
8894;BME280;4483;48.622;9.230;2023-07-30T08:53:37;97661.78;;;24.71;92.60
8894;BME280;4483;48.622;9.230;2023-07-30T08:56:05;97668.22;;;24.94;91.90
8894;BME280;4483;48.622;9.230;2023-07-30T08:58:33;97659.84;;;25.32;88.58
8894;BME280;4483;48.622;9.230;2023-07-30T09:01:04;97662.03;;;25.86;85.17
8894;BME280;4483;48.622;9.230;2023-07-30T09:03:35;97660.50;;;26.34;83.83
8894;BME280;4483;48.622;9.230;2023-07-30T09:06:05;97664.44;;;26.30;80.67
8894;BME280;4483;48.622;9.230;2023-07-30T09:08:35;97671.06;;;26.18;78.72
8894;BME280;4483;48.622;9.230;2023-07-30T09:11:08;97668.78;;;25.73;77.60
8894;BME280;4483;48.622;9.230;2023-07-30T09:13:37;97681.47;;;25.36;78.32
8894;BME280;4483;48.622;9.230;2023-07-30T09:16:08;97665.50;;;25.12;79.52
8894;BME280;4483;48.622;9.230;2023-07-30T09:18:39;97669.59;;;25.06;79.94
8894;BME280;4483;48.622;9.230;2023-07-30T09:21:07;97673.03;;;25.32;78.98
8894;BME280;4483;48.622;9.230;2023-07-30T09:23:39;97660.81;;;26.07;77.10
8894;BME280;4483;48.622;9.230;2023-07-30T09:26:07;97655.41;;;26.40;75.77
8894;BME280;4483;48.622;9.230;2023-07-30T09:28:34;97658.38;;;26.29;74.00
8894;BME280;4483;48.622;9.230;2023-07-30T09:31:01;97666.75;;;26.09;74.00
8894;BME280;4483;48.622;9.230;2023-07-30T09:33:31;97663.69;;;25.79;74.01
8894;BME280;4483;48.622;9.230;2023-07-30T09:35:58;97681.16;;;25.39;74.71
8894;BME280;4483;48.622;9.230;2023-07-30T09:38:26;97685.16;;;24.92;75.61
8894;BME280;4483;48.622;9.230;2023-07-30T09:41:00;97680.53;;;24.50;77.30
8894;BME280;4483;48.622;9.230;2023-07-30T09:43:28;97688.06;;;24.10;79.34
8894;BME280;4483;48.622;9.230;2023-07-30T09:46:01;97695.75;;;23.76;81.53
8894;BME280;4483;48.622;9.230;2023-07-30T09:48:29;97711.09;;;23.54;84.62
8894;BME280;4483;48.622;9.230;2023-07-30T09:50:56;97706.47;;;23.38;85.86
8894;BME280;4483;48.622;9.230;2023-07-30T09:53:25;97712.56;;;23.20;87.13
8894;BME280;4483;48.622;9.230;2023-07-30T09:55:54;97723.72;;;22.94;85.29
8894;BME280;4483;48.622;9.230;2023-07-30T09:58:21;97715.31;;;22.72;86.47
8894;BME280;4483;48.622;9.230;2023-07-30T10:00:48;97721.81;;;22.58;87.65
8894;BME280;4483;48.622;9.230;2023-07-30T10:03:16;97717.09;;;22.52;88.88
8894;BME280;4483;48.622;9.230;2023-07-30T10:05:45;97728.59;;;22.61;89.08
8894;BME280;4483;48.622;9.230;2023-07-30T10:08:17;97716.00;;;22.64;90.21
8894;BME280;4483;48.622;9.230;2023-07-30T10:10:47;97717.34;;;22.87;90.95
8894;BME280;4483;48.622;9.230;2023-07-30T10:13:16;97719.22;;;23.14;90.45
8894;BME280;4483;48.622;9.230;2023-07-30T10:15:43;97723.72;;;23.41;89.70
8894;BME280;4483;48.622;9.230;2023-07-30T10:18:10;97730.22;;;23.73;86.37
8894;BME280;4483;48.622;9.230;2023-07-30T10:20:41;97721.94;;;23.95;85.25
8894;BME280;4483;48.622;9.230;2023-07-30T10:23:19;97717.41;;;24.15;82.66
8894;BME280;4483;48.622;9.230;2023-07-30T10:25:49;97722.84;;;24.31;76.80
8894;BME280;4483;48.622;9.230;2023-07-30T10:28:27;97713.81;;;24.51;77.66
8894;BME280;4483;48.622;9.230;2023-07-30T10:30:59;97719.19;;;24.67;74.03
8894;BME280;4483;48.622;9.230;2023-07-30T10:33:45;97730.53;;;24.77;70.56
8894;BME280;4483;48.622;9.230;2023-07-30T10:36:12;97731.94;;;24.89;70.62
8894;BME280;4483;48.622;9.230;2023-07-30T10:38:40;97729.22;;;24.81;69.08
8894;BME280;4483;48.622;9.230;2023-07-30T10:41:12;97727.25;;;24.66;69.57
8894;BME280;4483;48.622;9.230;2023-07-30T10:43:43;97721.03;;;24.49;69.15
8894;BME280;4483;48.622;9.230;2023-07-30T10:46:11;97729.91;;;24.31;69.89
8894;BME280;4483;48.622;9.230;2023-07-30T10:48:39;97730.16;;;24.37;69.30
8894;BME280;4483;48.622;9.230;2023-07-30T10:51:08;97732.59;;;24.56;69.11
8894;BME280;4483;48.622;9.230;2023-07-30T10:53:36;97727.75;;;25.05;67.50
8894;BME280;4483;48.622;9.230;2023-07-30T10:56:05;97731.84;;;25.50;66.49
8894;BME280;4483;48.622;9.230;2023-07-30T10:58:35;97711.75;;;25.99;63.52
8894;BME280;4483;48.622;9.230;2023-07-30T11:01:03;97717.97;;;26.56;60.23
8894;BME280;4483;48.622;9.230;2023-07-30T11:03:30;97714.19;;;27.07;59.00
8894;BME280;4483;48.622;9.230;2023-07-30T11:05:58;97718.28;;;27.33;56.30
8894;BME280;4483;48.622;9.230;2023-07-30T11:08:35;97713.72;;;27.66;55.93
8894;BME280;4483;48.622;9.230;2023-07-30T11:11:03;97704.06;;;28.12;54.07
8894;BME280;4483;48.622;9.230;2023-07-30T11:13:36;97707.69;;;28.41;53.06
8894;BME280;4483;48.622;9.230;2023-07-30T11:16:04;97716.22;;;28.51;51.87
8894;BME280;4483;48.622;9.230;2023-07-30T11:18:31;97709.19;;;28.66;50.79
8894;BME280;4483;48.622;9.230;2023-07-30T11:21:03;97704.88;;;28.43;50.46
8894;BME280;4483;48.622;9.230;2023-07-30T11:23:29;97704.28;;;28.33;49.03
8894;BME280;4483;48.622;9.230;2023-07-30T11:25:56;97702.84;;;28.53;49.00
8894;BME280;4483;48.622;9.230;2023-07-30T11:28:30;97705.97;;;28.56;49.60
8894;BME280;4483;48.622;9.230;2023-07-30T11:31:01;97709.44;;;28.94;49.89
8894;BME280;4483;48.622;9.230;2023-07-30T11:33:28;97703.84;;;29.12;48.91
8894;BME280;4483;48.622;9.230;2023-07-30T11:35:56;97703.09;;;29.32;47.59
8894;BME280;4483;48.622;9.230;2023-07-30T11:38:23;97704.34;;;29.74;47.02
8894;BME280;4483;48.622;9.230;2023-07-30T11:40:53;97696.50;;;30.01;45.60
8894;BME280;4483;48.622;9.230;2023-07-30T11:43:20;97698.50;;;30.35;44.80
8894;BME280;4483;48.622;9.230;2023-07-30T11:45:47;97699.09;;;30.30;44.68
8894;BME280;4483;48.622;9.230;2023-07-30T11:48:15;97698.03;;;30.10;45.16
8894;BME280;4483;48.622;9.230;2023-07-30T11:50:46;97710.16;;;29.84;44.43
8894;BME280;4483;48.622;9.230;2023-07-30T11:53:15;97715.66;;;29.24;44.35
8894;BME280;4483;48.622;9.230;2023-07-30T11:55:43;97702.19;;;29.40;45.20
8894;BME280;4483;48.622;9.230;2023-07-30T11:58:13;97707.69;;;29.53;43.91
8894;BME280;4483;48.622;9.230;2023-07-30T12:00:44;97707.19;;;29.72;44.03
8894;BME280;4483;48.622;9.230;2023-07-30T12:03:21;97709.72;;;29.51;43.96
8894;BME280;4483;48.622;9.230;2023-07-30T12:05:49;97720.13;;;29.38;43.81
8894;BME280;4483;48.622;9.230;2023-07-30T12:08:25;97712.81;;;29.25;43.42
8894;BME280;4483;48.622;9.230;2023-07-30T12:11:02;97711.00;;;29.55;43.16
8894;BME280;4483;48.622;9.230;2023-07-30T12:13:29;97713.19;;;29.81;42.78
8894;BME280;4483;48.622;9.230;2023-07-30T12:15:57;97708.31;;;29.99;42.54
8894;BME280;4483;48.622;9.230;2023-07-30T12:18:26;97711.75;;;30.14;41.10
8894;BME280;4483;48.622;9.230;2023-07-30T12:20:54;97703.44;;;30.02;40.63
8894;BME280;4483;48.622;9.230;2023-07-30T12:23:21;97707.19;;;30.08;41.00
8894;BME280;4483;48.622;9.230;2023-07-30T12:25:50;97712.00;;;30.19;41.47
8894;BME280;4483;48.622;9.230;2023-07-30T12:28:16;97704.88;;;30.19;41.83
8894;BME280;4483;48.622;9.230;2023-07-30T12:30:43;97706.88;;;30.17;41.83
8894;BME280;4483;48.622;9.230;2023-07-30T12:33:10;97702.41;;;30.18;42.27
8894;BME280;4483;48.622;9.230;2023-07-30T12:35:38;97706.47;;;29.99;40.58
8894;BME280;4483;48.622;9.230;2023-07-30T12:38:07;97698.88;;;29.96;40.89
8894;BME280;4483;48.622;9.230;2023-07-30T12:40:34;97700.63;;;30.25;40.56
8894;BME280;4483;48.622;9.230;2023-07-30T12:43:01;97703.03;;;30.20;40.04
8894;BME280;4483;48.622;9.230;2023-07-30T12:45:28;97704.53;;;30.08;40.40
8894;BME280;4483;48.622;9.230;2023-07-30T12:47:57;97711.69;;;29.93;40.26
8894;BME280;4483;48.622;9.230;2023-07-30T12:50:24;97712.28;;;29.88;40.58
8894;BME280;4483;48.622;9.230;2023-07-30T12:52:53;97725.25;;;30.12;41.11
8894;BME280;4483;48.622;9.230;2023-07-30T12:55:20;97735.59;;;29.93;41.54
8894;BME280;4483;48.622;9.230;2023-07-30T12:57:47;97737.34;;;29.56;42.61
8894;BME280;4483;48.622;9.230;2023-07-30T13:00:14;97741.44;;;29.15;43.68
8894;BME280;4483;48.622;9.230;2023-07-30T13:02:41;97741.28;;;28.71;44.55
8894;BME280;4483;48.622;9.230;2023-07-30T13:05:08;97753.84;;;28.24;46.08
8894;BME280;4483;48.622;9.230;2023-07-30T13:07:35;97761.59;;;27.95;46.93
8894;BME280;4483;48.622;9.230;2023-07-30T13:10:04;97760.31;;;27.75;47.49
8894;BME280;4483;48.622;9.230;2023-07-30T13:12:31;97757.97;;;27.88;48.30
8894;BME280;4483;48.622;9.230;2023-07-30T13:14:58;97745.97;;;28.39;48.16
8894;BME280;4483;48.622;9.230;2023-07-30T13:17:24;97752.06;;;28.93;46.11